sensor_id;sensor_type;location;lat;lon;timestamp;temperature;humidity
19908;DHT22;10116;53.112;7.356;2023-03-20T00:01:58;25.60;46.70
19908;DHT22;10116;53.112;7.356;2023-03-20T00:04:23;25.60;46.10
19908;DHT22;10116;53.112;7.356;2023-03-20T00:06:50;25.60;46.80
19908;DHT22;10116;53.112;7.356;2023-03-20T00:09:16;25.60;46.30
19908;DHT22;10116;53.112;7.356;2023-03-20T00:11:49;25.60;46.00
19908;DHT22;10116;53.112;7.356;2023-03-20T00:14:18;25.60;46.30
19908;DHT22;10116;53.112;7.356;2023-03-20T00:16:46;25.60;46.80
19908;DHT22;10116;53.112;7.356;2023-03-20T00:19:15;25.60;45.60
19908;DHT22;10116;53.112;7.356;2023-03-20T00:21:45;25.60;46.00
19908;DHT22;10116;53.112;7.356;2023-03-20T00:24:11;25.50;46.00
19908;DHT22;10116;53.112;7.356;2023-03-20T00:26:37;25.50;45.50
19908;DHT22;10116;53.112;7.356;2023-03-20T00:29:04;25.50;46.00
19908;DHT22;10116;53.112;7.356;2023-03-20T00:31:33;25.50;46.10
19908;DHT22;10116;53.112;7.356;2023-03-20T00:34:02;25.50;45.40
19908;DHT22;10116;53.112;7.356;2023-03-20T00:36:28;25.50;45.10
19908;DHT22;10116;53.112;7.356;2023-03-20T00:38:54;25.50;45.20
19908;DHT22;10116;53.112;7.356;2023-03-20T00:46:37;25.50;45.30
19908;DHT22;10116;53.112;7.356;2023-03-20T00:49:03;25.50;45.10
19908;DHT22;10116;53.112;7.356;2023-03-20T00:51:29;25.50;45.20
19908;DHT22;10116;53.112;7.356;2023-03-20T00:53:54;25.50;44.90
19908;DHT22;10116;53.112;7.356;2023-03-20T00:56:29;25.50;44.80
19908;DHT22;10116;53.112;7.356;2023-03-20T00:58:56;25.50;44.90
19908;DHT22;10116;53.112;7.356;2023-03-20T01:01:22;25.40;44.70
19908;DHT22;10116;53.112;7.356;2023-03-20T01:03:48;25.40;45.30
19908;DHT22;10116;53.112;7.356;2023-03-20T01:06:13;25.40;44.60
19908;DHT22;10116;53.112;7.356;2023-03-20T01:08:40;25.50;45.20
19908;DHT22;10116;53.112;7.356;2023-03-20T01:11:08;25.50;45.80
19908;DHT22;10116;53.112;7.356;2023-03-20T01:13:34;25.50;45.40
19908;DHT22;10116;53.112;7.356;2023-03-20T01:16:02;25.50;44.90
19908;DHT22;10116;53.112;7.356;2023-03-20T01:18:28;25.50;45.20
19908;DHT22;10116;53.112;7.356;2023-03-20T01:20:53;25.50;45.40
19908;DHT22;10116;53.112;7.356;2023-03-20T01:23:20;25.50;45.50
19908;DHT22;10116;53.112;7.356;2023-03-20T01:25:47;25.50;45.50
19908;DHT22;10116;53.112;7.356;2023-03-20T01:28:16;25.50;45.30
19908;DHT22;10116;53.112;7.356;2023-03-20T01:30:43;25.50;46.00
19908;DHT22;10116;53.112;7.356;2023-03-20T01:33:17;25.50;44.90
19908;DHT22;10116;53.112;7.356;2023-03-20T01:35:44;25.50;45.60
19908;DHT22;10116;53.112;7.356;2023-03-20T01:38:12;25.40;44.80
19908;DHT22;10116;53.112;7.356;2023-03-20T01:43:15;25.40;46.00
19908;DHT22;10116;53.112;7.356;2023-03-20T01:45:58;25.40;45.30
19908;DHT22;10116;53.112;7.356;2023-03-20T01:48:27;25.40;44.70
19908;DHT22;10116;53.112;7.356;2023-03-20T01:50:56;25.40;44.40
19908;DHT22;10116;53.112;7.356;2023-03-20T01:53:24;25.40;44.70
19908;DHT22;10116;53.112;7.356;2023-03-20T01:55:54;25.40;44.50
19908;DHT22;10116;53.112;7.356;2023-03-20T01:58:27;25.40;44.10
19908;DHT22;10116;53.112;7.356;2023-03-20T02:00:58;25.40;44.60
19908;DHT22;10116;53.112;7.356;2023-03-20T02:03:24;25.40;44.50
19908;DHT22;10116;53.112;7.356;2023-03-20T02:05:50;25.40;44.30
19908;DHT22;10116;53.112;7.356;2023-03-20T02:08:30;25.40;44.50
19908;DHT22;10116;53.112;7.356;2023-03-20T02:10:58;25.40;44.90
19908;DHT22;10116;53.112;7.356;2023-03-20T02:13:29;25.40;44.50
19908;DHT22;10116;53.112;7.356;2023-03-20T02:16:28;25.40;44.30
19908;DHT22;10116;53.112;7.356;2023-03-20T02:18:55;25.40;44.50
19908;DHT22;10116;53.112;7.356;2023-03-20T02:33:07;25.40;44.10
19908;DHT22;10116;53.112;7.356;2023-03-20T02:49:02;25.30;43.60
19908;DHT22;10116;53.112;7.356;2023-03-20T02:51:55;25.40;43.70
19908;DHT22;10116;53.112;7.356;2023-03-20T02:54:43;25.30;43.70
19908;DHT22;10116;53.112;7.356;2023-03-20T02:57:23;25.30;43.80
19908;DHT22;10116;53.112;7.356;2023-03-20T03:00:12;25.30;44.10
19908;DHT22;10116;53.112;7.356;2023-03-20T03:02:46;25.30;43.40
19908;DHT22;10116;53.112;7.356;2023-03-20T03:05:21;25.30;43.20
19908;DHT22;10116;53.112;7.356;2023-03-20T03:07:51;25.30;44.00
19908;DHT22;10116;53.112;7.356;2023-03-20T03:10:25;25.30;43.60
19908;DHT22;10116;53.112;7.356;2023-03-20T03:12:55;25.30;43.30
19908;DHT22;10116;53.112;7.356;2023-03-20T03:15:29;25.30;43.80
19908;DHT22;10116;53.112;7.356;2023-03-20T03:17:57;25.30;43.30
19908;DHT22;10116;53.112;7.356;2023-03-20T03:20:35;25.30;43.80
19908;DHT22;10116;53.112;7.356;2023-03-20T03:23:01;25.30;45.60
19908;DHT22;10116;53.112;7.356;2023-03-20T03:25:30;25.30;43.10
19908;DHT22;10116;53.112;7.356;2023-03-20T03:28:22;25.30;43.30
19908;DHT22;10116;53.112;7.356;2023-03-20T03:30:51;25.30;44.30
19908;DHT22;10116;53.112;7.356;2023-03-20T03:33:23;25.30;43.40
19908;DHT22;10116;53.112;7.356;2023-03-20T03:35:53;25.30;43.40
19908;DHT22;10116;53.112;7.356;2023-03-20T03:38:34;25.30;43.90
19908;DHT22;10116;53.112;7.356;2023-03-20T03:41:34;25.30;44.20
19908;DHT22;10116;53.112;7.356;2023-03-20T03:44:25;25.30;43.30
19908;DHT22;10116;53.112;7.356;2023-03-20T03:47:18;25.30;43.40
19908;DHT22;10116;53.112;7.356;2023-03-20T03:49:52;25.30;43.60
19908;DHT22;10116;53.112;7.356;2023-03-20T03:52:23;25.20;43.20
19908;DHT22;10116;53.112;7.356;2023-03-20T03:55:44;25.20;43.10
19908;DHT22;10116;53.112;7.356;2023-03-20T03:57:55;25.30;43.20
19908;DHT22;10116;53.112;7.356;2023-03-20T04:00:23;25.30;43.60
19908;DHT22;10116;53.112;7.356;2023-03-20T04:02:53;25.30;43.50
19908;DHT22;10116;53.112;7.356;2023-03-20T04:05:19;25.30;43.60
19908;DHT22;10116;53.112;7.356;2023-03-20T04:07:46;25.30;45.50
19908;DHT22;10116;53.112;7.356;2023-03-20T04:10:14;25.30;44.50
19908;DHT22;10116;53.112;7.356;2023-03-20T04:12:42;25.30;44.60
19908;DHT22;10116;53.112;7.356;2023-03-20T04:15:09;25.30;44.80
19908;DHT22;10116;53.112;7.356;2023-03-20T04:17:35;25.30;44.20
19908;DHT22;10116;53.112;7.356;2023-03-20T04:20:01;25.30;44.00
19908;DHT22;10116;53.112;7.356;2023-03-20T04:22:27;25.30;44.30
19908;DHT22;10116;53.112;7.356;2023-03-20T04:24:52;25.30;44.10
19908;DHT22;10116;53.112;7.356;2023-03-20T04:27:18;25.30;44.20
19908;DHT22;10116;53.112;7.356;2023-03-20T04:29:44;25.40;44.50
19908;DHT22;10116;53.112;7.356;2023-03-20T04:32:10;25.40;45.00
19908;DHT22;10116;53.112;7.356;2023-03-20T04:34:35;25.50;45.80
19908;DHT22;10116;53.112;7.356;2023-03-20T04:37:01;25.60;46.60
19908;DHT22;10116;53.112;7.356;2023-03-20T04:39:27;25.60;48.10
19908;DHT22;10116;53.112;7.356;2023-03-20T04:41:53;25.60;47.40
19908;DHT22;10116;53.112;7.356;2023-03-20T04:44:18;25.70;48.30
19908;DHT22;10116;53.112;7.356;2023-03-20T04:46:44;25.80;49.10
19908;DHT22;10116;53.112;7.356;2023-03-20T04:49:10;25.80;48.80
19908;DHT22;10116;53.112;7.356;2023-03-20T04:51:35;25.90;49.70
19908;DHT22;10116;53.112;7.356;2023-03-20T04:54:01;25.90;49.00
19908;DHT22;10116;53.112;7.356;2023-03-20T04:56:26;25.90;50.10
19908;DHT22;10116;53.112;7.356;2023-03-20T04:58:52;25.90;49.30
19908;DHT22;10116;53.112;7.356;2023-03-20T05:01:17;25.90;62.00
19908;DHT22;10116;53.112;7.356;2023-03-20T05:03:43;25.90;48.90
19908;DHT22;10116;53.112;7.356;2023-03-20T05:06:09;25.90;48.40
19908;DHT22;10116;53.112;7.356;2023-03-20T05:08:34;25.90;48.40
19908;DHT22;10116;53.112;7.356;2023-03-20T05:11:01;25.90;48.30
19908;DHT22;10116;53.112;7.356;2023-03-20T05:13:26;25.80;48.10
19908;DHT22;10116;53.112;7.356;2023-03-20T05:15:52;25.80;47.00
19908;DHT22;10116;53.112;7.356;2023-03-20T05:18:17;25.70;46.60
19908;DHT22;10116;53.112;7.356;2023-03-20T05:20:43;25.70;46.10
19908;DHT22;10116;53.112;7.356;2023-03-20T05:23:09;25.60;45.90
19908;DHT22;10116;53.112;7.356;2023-03-20T05:25:35;25.60;44.50
19908;DHT22;10116;53.112;7.356;2023-03-20T05:28:00;25.50;45.10
19908;DHT22;10116;53.112;7.356;2023-03-20T05:30:26;25.50;45.30
19908;DHT22;10116;53.112;7.356;2023-03-20T05:32:52;25.50;43.90
19908;DHT22;10116;53.112;7.356;2023-03-20T05:35:18;25.50;45.40
19908;DHT22;10116;53.112;7.356;2023-03-20T05:37:44;25.50;44.70
19908;DHT22;10116;53.112;7.356;2023-03-20T05:40:14;25.40;45.20
19908;DHT22;10116;53.112;7.356;2023-03-20T05:42:40;25.00;39.00
19908;DHT22;10116;53.112;7.356;2023-03-20T05:45:06;25.00;38.90
19908;DHT22;10116;53.112;7.356;2023-03-20T05:47:32;25.00;39.50
19908;DHT22;10116;53.112;7.356;2023-03-20T05:49:58;25.00;39.40
19908;DHT22;10116;53.112;7.356;2023-03-20T05:52:23;25.10;40.40
19908;DHT22;10116;53.112;7.356;2023-03-20T05:54:49;25.10;40.80
19908;DHT22;10116;53.112;7.356;2023-03-20T05:57:15;25.10;41.40
19908;DHT22;10116;53.112;7.356;2023-03-20T05:59:42;25.10;41.40
19908;DHT22;10116;53.112;7.356;2023-03-20T06:02:07;25.10;41.50
19908;DHT22;10116;53.112;7.356;2023-03-20T06:04:33;25.10;41.60
19908;DHT22;10116;53.112;7.356;2023-03-20T06:07:02;25.10;41.30
19908;DHT22;10116;53.112;7.356;2023-03-20T06:09:27;25.10;41.30
19908;DHT22;10116;53.112;7.356;2023-03-20T06:11:53;25.10;40.80
19908;DHT22;10116;53.112;7.356;2023-03-20T06:14:19;25.00;41.00
19908;DHT22;10116;53.112;7.356;2023-03-20T06:16:44;25.00;40.90
19908;DHT22;10116;53.112;7.356;2023-03-20T06:19:11;25.00;40.70
19908;DHT22;10116;53.112;7.356;2023-03-20T06:21:36;25.00;40.60
19908;DHT22;10116;53.112;7.356;2023-03-20T06:24:02;25.00;40.40
19908;DHT22;10116;53.112;7.356;2023-03-20T06:26:28;25.00;40.40
19908;DHT22;10116;53.112;7.356;2023-03-20T06:28:53;25.00;40.80
19908;DHT22;10116;53.112;7.356;2023-03-20T06:31:19;25.00;40.80
19908;DHT22;10116;53.112;7.356;2023-03-20T06:33:45;25.10;41.70
19908;DHT22;10116;53.112;7.356;2023-03-20T06:36:10;25.10;41.40
19908;DHT22;10116;53.112;7.356;2023-03-20T06:38:36;25.10;41.60
19908;DHT22;10116;53.112;7.356;2023-03-20T06:41:02;25.10;41.50
19908;DHT22;10116;53.112;7.356;2023-03-20T06:43:27;25.10;42.00
19908;DHT22;10116;53.112;7.356;2023-03-20T06:45:53;25.10;41.40
19908;DHT22;10116;53.112;7.356;2023-03-20T06:48:19;25.10;40.70
19908;DHT22;10116;53.112;7.356;2023-03-20T06:50:47;25.10;41.20
19908;DHT22;10116;53.112;7.356;2023-03-20T06:53:13;25.10;40.40
19908;DHT22;10116;53.112;7.356;2023-03-20T06:55:39;25.10;52.10
19908;DHT22;10116;53.112;7.356;2023-03-20T06:58:05;25.00;40.40
19908;DHT22;10116;53.112;7.356;2023-03-20T07:00:30;25.00;39.70
19908;DHT22;10116;53.112;7.356;2023-03-20T07:02:56;25.00;40.00
19908;DHT22;10116;53.112;7.356;2023-03-20T07:05:22;25.00;39.40
19908;DHT22;10116;53.112;7.356;2023-03-20T07:07:48;25.00;39.10
19908;DHT22;10116;53.112;7.356;2023-03-20T07:10:13;25.00;38.90
19908;DHT22;10116;53.112;7.356;2023-03-20T07:12:39;25.00;39.60
19908;DHT22;10116;53.112;7.356;2023-03-20T07:15:05;25.00;38.20
19908;DHT22;10116;53.112;7.356;2023-03-20T07:17:31;25.00;38.20
19908;DHT22;10116;53.112;7.356;2023-03-20T07:19:56;25.00;37.50
19908;DHT22;10116;53.112;7.356;2023-03-20T07:22:25;24.90;37.50
19908;DHT22;10116;53.112;7.356;2023-03-20T07:24:51;24.90;36.80
19908;DHT22;10116;53.112;7.356;2023-03-20T07:27:17;24.90;37.80
19908;DHT22;10116;53.112;7.356;2023-03-20T07:29:43;25.00;37.50
19908;DHT22;10116;53.112;7.356;2023-03-20T07:32:10;25.00;37.50
19908;DHT22;10116;53.112;7.356;2023-03-20T07:34:36;25.00;37.80
19908;DHT22;10116;53.112;7.356;2023-03-20T07:37:03;25.00;37.80
19908;DHT22;10116;53.112;7.356;2023-03-20T07:39:28;25.10;38.10
19908;DHT22;10116;53.112;7.356;2023-03-20T07:41:54;25.10;38.40
19908;DHT22;10116;53.112;7.356;2023-03-20T07:44:20;25.10;37.20
19908;DHT22;10116;53.112;7.356;2023-03-20T07:46:46;25.10;37.00
19908;DHT22;10116;53.112;7.356;2023-03-20T07:49:12;25.10;37.40
19908;DHT22;10116;53.112;7.356;2023-03-20T07:51:38;25.00;36.70
19908;DHT22;10116;53.112;7.356;2023-03-20T07:54:04;25.00;36.20
19908;DHT22;10116;53.112;7.356;2023-03-20T07:56:30;25.00;35.90
19908;DHT22;10116;53.112;7.356;2023-03-20T07:58:55;25.00;36.40
19908;DHT22;10116;53.112;7.356;2023-03-20T08:01:21;25.00;34.90
19908;DHT22;10116;53.112;7.356;2023-03-20T08:03:47;25.00;34.90
19908;DHT22;10116;53.112;7.356;2023-03-20T08:06:12;25.00;34.50
19908;DHT22;10116;53.112;7.356;2023-03-20T08:08:38;25.00;34.60
19908;DHT22;10116;53.112;7.356;2023-03-20T08:11:04;25.00;34.70
19908;DHT22;10116;53.112;7.356;2023-03-20T08:13:30;25.00;33.80
19908;DHT22;10116;53.112;7.356;2023-03-20T08:15:56;24.90;33.90
19908;DHT22;10116;53.112;7.356;2023-03-20T08:18:22;24.90;33.40
19908;DHT22;10116;53.112;7.356;2023-03-20T08:20:48;24.90;34.20
19908;DHT22;10116;53.112;7.356;2023-03-20T08:23:17;24.90;32.70
19908;DHT22;10116;53.112;7.356;2023-03-20T08:25:50;24.90;33.00
19908;DHT22;10116;53.112;7.356;2023-03-20T08:28:17;24.90;33.10
19908;DHT22;10116;53.112;7.356;2023-03-20T08:30:42;24.90;32.60
19908;DHT22;10116;53.112;7.356;2023-03-20T08:33:08;25.00;33.50
19908;DHT22;10116;53.112;7.356;2023-03-20T08:35:34;25.00;33.60
19908;DHT22;10116;53.112;7.356;2023-03-20T08:38:00;25.00;34.00
19908;DHT22;10116;53.112;7.356;2023-03-20T08:40:26;25.10;34.50
19908;DHT22;10116;53.112;7.356;2023-03-20T08:42:52;25.10;35.90
19908;DHT22;10116;53.112;7.356;2023-03-20T08:45:17;25.20;34.80
19908;DHT22;10116;53.112;7.356;2023-03-20T08:47:46;25.20;35.10
19908;DHT22;10116;53.112;7.356;2023-03-20T08:50:13;25.20;35.70
19908;DHT22;10116;53.112;7.356;2023-03-20T08:52:39;25.20;36.00
19908;DHT22;10116;53.112;7.356;2023-03-20T08:55:09;25.20;35.20
19908;DHT22;10116;53.112;7.356;2023-03-20T08:57:35;25.20;34.30
19908;DHT22;10116;53.112;7.356;2023-03-20T09:00:06;25.20;34.40
19908;DHT22;10116;53.112;7.356;2023-03-20T09:02:32;25.20;33.70
19908;DHT22;10116;53.112;7.356;2023-03-20T09:04:58;25.10;33.50
19908;DHT22;10116;53.112;7.356;2023-03-20T09:07:23;25.10;33.10
19908;DHT22;10116;53.112;7.356;2023-03-20T09:09:49;25.00;32.30
19908;DHT22;10116;53.112;7.356;2023-03-20T09:12:16;25.00;31.30
19908;DHT22;10116;53.112;7.356;2023-03-20T09:14:41;25.00;31.10
19908;DHT22;10116;53.112;7.356;2023-03-20T09:17:07;25.00;30.20
19908;DHT22;10116;53.112;7.356;2023-03-20T09:19:33;24.90;29.80
19908;DHT22;10116;53.112;7.356;2023-03-20T09:21:59;24.90;29.20
19908;DHT22;10116;53.112;7.356;2023-03-20T09:24:25;24.90;29.60
19908;DHT22;10116;53.112;7.356;2023-03-20T09:26:51;24.80;29.50
19908;DHT22;10116;53.112;7.356;2023-03-20T09:29:17;24.80;29.00
19908;DHT22;10116;53.112;7.356;2023-03-20T09:31:42;24.80;29.00
19908;DHT22;10116;53.112;7.356;2023-03-20T09:34:08;24.80;29.60
19908;DHT22;10116;53.112;7.356;2023-03-20T09:36:34;24.80;29.00
19908;DHT22;10116;53.112;7.356;2023-03-20T09:39:00;24.80;28.90
19908;DHT22;10116;53.112;7.356;2023-03-20T09:41:26;24.80;29.00
19908;DHT22;10116;53.112;7.356;2023-03-20T09:44:13;24.80;29.00
19908;DHT22;10116;53.112;7.356;2023-03-20T09:49:30;24.70;29.20
19908;DHT22;10116;53.112;7.356;2023-03-20T09:52:15;24.70;28.90
19908;DHT22;10116;53.112;7.356;2023-03-20T09:54:45;24.70;29.00
19908;DHT22;10116;53.112;7.356;2023-03-20T09:57:42;24.70;29.50
19908;DHT22;10116;53.112;7.356;2023-03-20T10:00:23;24.70;29.20
19908;DHT22;10116;53.112;7.356;2023-03-20T10:02:57;24.70;28.90
19908;DHT22;10116;53.112;7.356;2023-03-20T10:05:29;24.70;29.30
19908;DHT22;10116;53.112;7.356;2023-03-20T10:07:58;24.70;29.70
19908;DHT22;10116;53.112;7.356;2023-03-20T10:18:41;24.60;29.20
19908;DHT22;10116;53.112;7.356;2023-03-20T10:21:25;24.60;29.20
19908;DHT22;10116;53.112;7.356;2023-03-20T10:26:23;24.60;28.80
19908;DHT22;10116;53.112;7.356;2023-03-20T10:29:00;24.60;28.70
19908;DHT22;10116;53.112;7.356;2023-03-20T10:31:43;24.60;29.00
19908;DHT22;10116;53.112;7.356;2023-03-20T10:42:19;24.70;28.80
19908;DHT22;10116;53.112;7.356;2023-03-20T10:44:57;24.70;28.80
19908;DHT22;10116;53.112;7.356;2023-03-20T10:47:27;24.70;28.90
19908;DHT22;10116;53.112;7.356;2023-03-20T10:50:00;24.70;29.30
19908;DHT22;10116;53.112;7.356;2023-03-20T10:52:30;24.80;29.00
19908;DHT22;10116;53.112;7.356;2023-03-20T10:55:05;24.80;29.00
19908;DHT22;10116;53.112;7.356;2023-03-20T10:57:38;24.80;29.00
19908;DHT22;10116;53.112;7.356;2023-03-20T11:00:12;24.80;29.00
19908;DHT22;10116;53.112;7.356;2023-03-20T11:02:38;24.80;29.00
19908;DHT22;10116;53.112;7.356;2023-03-20T11:08:11;25.00;29.10
19908;DHT22;10116;53.112;7.356;2023-03-20T11:10:39;25.10;29.40
19908;DHT22;10116;53.112;7.356;2023-03-20T11:13:24;25.10;29.60
19908;DHT22;10116;53.112;7.356;2023-03-20T11:15:51;25.20;30.50
19908;DHT22;10116;53.112;7.356;2023-03-20T11:18:18;25.30;31.70
19908;DHT22;10116;53.112;7.356;2023-03-20T11:20:47;25.40;32.00
19908;DHT22;10116;53.112;7.356;2023-03-20T11:23:16;25.40;33.40
19908;DHT22;10116;53.112;7.356;2023-03-20T11:26:02;25.40;33.10
19908;DHT22;10116;53.112;7.356;2023-03-20T11:28:38;25.50;33.00
19908;DHT22;10116;53.112;7.356;2023-03-20T11:31:17;25.50;33.30
19908;DHT22;10116;53.112;7.356;2023-03-20T11:33:49;25.50;33.40
19908;DHT22;10116;53.112;7.356;2023-03-20T11:36:20;25.50;33.80
19908;DHT22;10116;53.112;7.356;2023-03-20T11:38:46;25.50;33.30
19908;DHT22;10116;53.112;7.356;2023-03-20T11:41:23;25.50;33.40
19908;DHT22;10116;53.112;7.356;2023-03-20T11:43:49;25.50;32.90
19908;DHT22;10116;53.112;7.356;2023-03-20T11:46:15;25.50;32.60
19908;DHT22;10116;53.112;7.356;2023-03-20T11:48:43;25.50;32.90
19908;DHT22;10116;53.112;7.356;2023-03-20T11:51:18;25.50;32.40
19908;DHT22;10116;53.112;7.356;2023-03-20T11:56:24;25.50;32.40
19908;DHT22;10116;53.112;7.356;2023-03-20T11:58:54;25.50;32.40
19908;DHT22;10116;53.112;7.356;2023-03-20T12:01:22;25.60;32.80
19908;DHT22;10116;53.112;7.356;2023-03-20T12:06:28;25.60;34.40
19908;DHT22;10116;53.112;7.356;2023-03-20T12:09:03;25.60;32.90
19908;DHT22;10116;53.112;7.356;2023-03-20T12:14:04;25.60;32.50
19908;DHT22;10116;53.112;7.356;2023-03-20T12:16:32;25.60;32.60
19908;DHT22;10116;53.112;7.356;2023-03-20T12:19:03;25.60;32.50
19908;DHT22;10116;53.112;7.356;2023-03-20T12:21:39;25.60;32.00
19908;DHT22;10116;53.112;7.356;2023-03-20T12:25:00;25.50;31.00
19908;DHT22;10116;53.112;7.356;2023-03-20T12:27:20;25.50;30.80
19908;DHT22;10116;53.112;7.356;2023-03-20T12:35:29;25.50;29.90
19908;DHT22;10116;53.112;7.356;2023-03-20T12:37:56;25.50;32.20
19908;DHT22;10116;53.112;7.356;2023-03-20T12:40:42;25.40;30.10
19908;DHT22;10116;53.112;7.356;2023-03-20T12:43:23;25.40;30.00
19908;DHT22;10116;53.112;7.356;2023-03-20T12:46:05;25.40;29.80
19908;DHT22;10116;53.112;7.356;2023-03-20T12:56:56;25.40;30.50
19908;DHT22;10116;53.112;7.356;2023-03-20T13:07:20;25.60;32.00
19908;DHT22;10116;53.112;7.356;2023-03-20T13:20:34;25.60;32.40
19908;DHT22;10116;53.112;7.356;2023-03-20T13:30:56;25.60;31.30
19908;DHT22;10116;53.112;7.356;2023-03-20T13:38:45;25.60;30.90
19908;DHT22;10116;53.112;7.356;2023-03-20T13:41:12;25.60;30.40
19908;DHT22;10116;53.112;7.356;2023-03-20T13:43:54;25.60;30.90
19908;DHT22;10116;53.112;7.356;2023-03-20T13:46:36;25.60;31.10
19908;DHT22;10116;53.112;7.356;2023-03-20T13:52:11;25.60;31.00
19908;DHT22;10116;53.112;7.356;2023-03-20T14:05:30;25.60;29.60
19908;DHT22;10116;53.112;7.356;2023-03-20T14:10:45;25.50;29.50
19908;DHT22;10116;53.112;7.356;2023-03-20T14:13:14;25.50;29.70
19908;DHT22;10116;53.112;7.356;2023-03-20T14:15:52;25.50;29.40
19908;DHT22;10116;53.112;7.356;2023-03-20T14:18:21;25.50;29.30
19908;DHT22;10116;53.112;7.356;2023-03-20T14:20:59;25.50;29.40
19908;DHT22;10116;53.112;7.356;2023-03-20T14:23:32;25.50;29.60
19908;DHT22;10116;53.112;7.356;2023-03-20T14:25:59;25.50;29.70
19908;DHT22;10116;53.112;7.356;2023-03-20T14:28:28;25.60;29.80
19908;DHT22;10116;53.112;7.356;2023-03-20T14:33:58;25.60;30.90
19908;DHT22;10116;53.112;7.356;2023-03-20T14:36:30;25.60;31.50
19908;DHT22;10116;53.112;7.356;2023-03-20T14:45:22;25.60;31.00
19908;DHT22;10116;53.112;7.356;2023-03-20T14:50:36;25.60;30.90
19908;DHT22;10116;53.112;7.356;2023-03-20T14:53:32;25.60;31.50
19908;DHT22;10116;53.112;7.356;2023-03-20T14:56:26;25.60;30.50
19908;DHT22;10116;53.112;7.356;2023-03-20T14:59:02;25.60;30.70
19908;DHT22;10116;53.112;7.356;2023-03-20T15:04:24;25.60;31.00
19908;DHT22;10116;53.112;7.356;2023-03-20T15:07:05;25.60;30.80
19908;DHT22;10116;53.112;7.356;2023-03-20T15:09:36;25.60;31.40
19908;DHT22;10116;53.112;7.356;2023-03-20T15:12:05;25.60;30.70
19908;DHT22;10116;53.112;7.356;2023-03-20T15:14:36;25.60;30.60
19908;DHT22;10116;53.112;7.356;2023-03-20T15:17:14;25.60;30.20
19908;DHT22;10116;53.112;7.356;2023-03-20T15:19:40;25.60;31.00
19908;DHT22;10116;53.112;7.356;2023-03-20T15:22:14;25.60;32.80
19908;DHT22;10116;53.112;7.356;2023-03-20T15:24:40;25.70;32.50
19908;DHT22;10116;53.112;7.356;2023-03-20T15:27:10;25.80;34.10
19908;DHT22;10116;53.112;7.356;2023-03-20T15:29:36;25.80;33.50
19908;DHT22;10116;53.112;7.356;2023-03-20T15:32:02;25.90;34.20
19908;DHT22;10116;53.112;7.356;2023-03-20T15:34:31;25.90;35.30
19908;DHT22;10116;53.112;7.356;2023-03-20T15:36:59;25.90;34.60
19908;DHT22;10116;53.112;7.356;2023-03-20T15:39:27;25.90;35.10
19908;DHT22;10116;53.112;7.356;2023-03-20T15:42:00;26.00;34.30
19908;DHT22;10116;53.112;7.356;2023-03-20T15:44:33;26.00;34.80
19908;DHT22;10116;53.112;7.356;2023-03-20T15:47:11;26.00;35.10
19908;DHT22;10116;53.112;7.356;2023-03-20T15:49:39;26.00;35.20
19908;DHT22;10116;53.112;7.356;2023-03-20T15:52:20;26.00;34.90
19908;DHT22;10116;53.112;7.356;2023-03-20T15:54:47;26.00;34.80
19908;DHT22;10116;53.112;7.356;2023-03-20T15:57:19;26.00;34.60
19908;DHT22;10116;53.112;7.356;2023-03-20T15:59:45;26.00;34.10
19908;DHT22;10116;53.112;7.356;2023-03-20T16:02:12;25.90;33.70
19908;DHT22;10116;53.112;7.356;2023-03-20T16:04:49;25.90;34.20
19908;DHT22;10116;53.112;7.356;2023-03-20T16:07:27;25.90;33.50
19908;DHT22;10116;53.112;7.356;2023-03-20T16:09:53;25.90;34.30
19908;DHT22;10116;53.112;7.356;2023-03-20T16:12:19;25.90;33.50
19908;DHT22;10116;53.112;7.356;2023-03-20T16:14:47;25.90;33.40
19908;DHT22;10116;53.112;7.356;2023-03-20T16:17:14;25.90;33.20
19908;DHT22;10116;53.112;7.356;2023-03-20T16:19:40;25.90;33.10
19908;DHT22;10116;53.112;7.356;2023-03-20T16:22:19;25.90;33.70
19908;DHT22;10116;53.112;7.356;2023-03-20T16:24:49;26.00;34.80
19908;DHT22;10116;53.112;7.356;2023-03-20T16:27:26;26.00;34.30
19908;DHT22;10116;53.112;7.356;2023-03-20T16:29:53;26.00;34.50
19908;DHT22;10116;53.112;7.356;2023-03-20T16:32:28;26.00;34.70
19908;DHT22;10116;53.112;7.356;2023-03-20T16:34:57;26.10;34.40
19908;DHT22;10116;53.112;7.356;2023-03-20T16:37:29;26.00;34.40
19908;DHT22;10116;53.112;7.356;2023-03-20T16:42:43;26.00;34.40
19908;DHT22;10116;53.112;7.356;2023-03-20T16:47:47;26.00;33.60
19908;DHT22;10116;53.112;7.356;2023-03-20T16:50:21;26.00;33.30
19908;DHT22;10116;53.112;7.356;2023-03-20T16:52:55;26.00;33.00
19908;DHT22;10116;53.112;7.356;2023-03-20T16:55:28;25.90;32.60
19908;DHT22;10116;53.112;7.356;2023-03-20T16:57:58;25.90;32.60
19908;DHT22;10116;53.112;7.356;2023-03-20T17:00:30;25.90;32.10
19908;DHT22;10116;53.112;7.356;2023-03-20T17:05:43;25.90;31.90
19908;DHT22;10116;53.112;7.356;2023-03-20T17:08:12;25.80;31.70
19908;DHT22;10116;53.112;7.356;2023-03-20T17:10:38;25.90;32.60
19908;DHT22;10116;53.112;7.356;2023-03-20T17:13:04;25.90;32.20
19908;DHT22;10116;53.112;7.356;2023-03-20T17:15:31;25.90;32.20
19908;DHT22;10116;53.112;7.356;2023-03-20T17:17:57;25.90;32.70
19908;DHT22;10116;53.112;7.356;2023-03-20T17:20:28;25.90;32.80
19908;DHT22;10116;53.112;7.356;2023-03-20T17:22:55;25.90;34.10
19908;DHT22;10116;53.112;7.356;2023-03-20T17:25:20;25.90;33.80
19908;DHT22;10116;53.112;7.356;2023-03-20T17:27:46;26.00;34.30
19908;DHT22;10116;53.112;7.356;2023-03-20T17:30:18;26.00;34.50
19908;DHT22;10116;53.112;7.356;2023-03-20T17:32:44;26.10;35.30
19908;DHT22;10116;53.112;7.356;2023-03-20T17:35:10;26.10;35.30
19908;DHT22;10116;53.112;7.356;2023-03-20T17:37:36;26.10;35.60
19908;DHT22;10116;53.112;7.356;2023-03-20T17:40:02;26.10;35.20
19908;DHT22;10116;53.112;7.356;2023-03-20T17:42:27;26.10;36.10
19908;DHT22;10116;53.112;7.356;2023-03-20T17:44:57;26.10;35.80
19908;DHT22;10116;53.112;7.356;2023-03-20T17:47:24;26.10;36.00
19908;DHT22;10116;53.112;7.356;2023-03-20T17:49:51;26.10;35.80
19908;DHT22;10116;53.112;7.356;2023-03-20T17:52:23;26.10;34.80
19908;DHT22;10116;53.112;7.356;2023-03-20T17:54:49;26.00;34.30
19908;DHT22;10116;53.112;7.356;2023-03-20T17:59:47;26.00;34.50
19908;DHT22;10116;53.112;7.356;2023-03-20T18:02:14;26.00;34.00
19908;DHT22;10116;53.112;7.356;2023-03-20T18:04:40;26.00;34.40
19908;DHT22;10116;53.112;7.356;2023-03-20T18:07:08;26.00;34.80
19908;DHT22;10116;53.112;7.356;2023-03-20T18:09:33;26.00;35.40
19908;DHT22;10116;53.112;7.356;2023-03-20T18:11:59;26.10;36.00
19908;DHT22;10116;53.112;7.356;2023-03-20T18:14:25;26.10;35.60
19908;DHT22;10116;53.112;7.356;2023-03-20T18:16:50;26.10;36.00
19908;DHT22;10116;53.112;7.356;2023-03-20T18:19:25;26.10;35.30